Time;durP1;ratioP1;P1;durP2;ratioP2;P2;SDS_P1;SDS_P2;PMS_P1;PMS_P2;Temp;Humidity;BMP_temperature;BMP_pressure;BME280_temperature;BME280_humidity;BME280_pressure;Samples;Min_cycle;Max_cycle;Signal;HPM_P1;HPM_P2
2023/01/26 00:00:49;;;;;;;9.77;4.43;;;;;;;-2.05;80.64;100139.16;5087800;28;20047;-62
2023/01/26 00:03:15;;;;;;;9.77;3.30;;;;;;;-2.05;80.70;100151.91;5072388;28;20162;-60
2023/01/26 00:05:41;;;;;;;8.25;4.03;;;;;;;-2.28;80.41;100098.72;5080911;28;20044;-61
2023/01/26 00:08:08;;;;;;;7.97;3.78;;;;;;;-2.06;80.59;100132.34;5086994;28;20048;-63
2023/01/26 00:10:38;;;;;;;7.80;3.38;;;;;;;-2.02;80.33;100134.13;5100015;28;20484;-61
2023/01/26 00:13:04;;;;;;;6.90;3.35;;;;;;;-2.02;80.40;100139.22;5083275;28;20032;-60
2023/01/26 00:15:34;;;;;;;8.00;3.40;;;;;;;-2.09;80.43;100124.66;5072479;28;20036;-61
2023/01/26 00:18:01;;;;;;;17.63;5.03;;;;;;;-2.01;80.44;100139.28;5089548;28;20051;-62
2023/01/26 00:20:27;;;;;;;8.88;4.00;;;;;;;-1.96;80.46;100154.66;5075615;28;20040;-61
2023/01/26 00:22:53;;;;;;;7.13;3.35;;;;;;;-1.98;80.79;100144.44;5071095;28;20049;-63
2023/01/26 00:25:19;;;;;;;6.63;3.28;;;;;;;-2.04;80.42;100148.53;5086841;28;20047;-61
2023/01/26 00:27:46;;;;;;;9.02;4.25;;;;;;;-1.99;80.47;100149.50;5073045;28;20040;-61
2023/01/26 00:30:13;;;;;;;7.50;3.72;;;;;;;-1.99;80.32;100140.16;5072410;28;20121;-61
2023/01/26 00:32:38;;;;;;;8.75;4.03;;;;;;;-2.00;80.48;100145.22;5091267;28;20444;-61
2023/01/26 00:35:05;;;;;;;11.43;5.10;;;;;;;-2.03;80.49;100143.47;5076251;28;20131;-61
2023/01/26 00:37:31;;;;;;;9.13;3.90;;;;;;;-2.02;80.56;100151.97;5091088;28;20036;-61
2023/01/26 00:39:57;;;;;;;7.10;3.35;;;;;;;-2.04;80.73;100131.53;5078260;28;20060;-61
2023/01/26 00:42:23;;;;;;;9.23;4.60;;;;;;;-2.19;80.61;100096.41;5069251;28;20063;-60
2023/01/26 00:44:50;;;;;;;9.43;3.40;;;;;;;-2.03;80.55;100130.72;5100850;28;20040;-62
2023/01/26 00:47:17;;;;;;;8.82;4.13;;;;;;;-1.98;80.79;100151.19;5089528;28;20044;-58
2023/01/26 00:49:43;;;;;;;11.27;5.10;;;;;;;-1.99;80.89;100146.97;5088679;28;20062;-63
2023/01/26 00:52:10;;;;;;;13.00;4.68;;;;;;;-1.94;80.83;100146.25;5068257;28;20040;-61
2023/01/26 00:54:36;;;;;;;5.78;2.42;;;;;;;-1.89;80.93;100134.47;5080285;28;20032;-61
2023/01/26 00:57:02;;;;;;;10.48;3.92;;;;;;;-1.86;80.41;100143.84;5079570;28;20044;-53
2023/01/26 00:59:31;;;;;;;10.75;4.38;;;;;;;-2.16;80.20;100119.41;5078021;28;20032;-61
2023/01/26 01:02:01;;;;;;;8.47;3.93;;;;;;;-1.98;80.59;100141.00;5077584;28;20048;-60
2023/01/26 01:04:30;;;;;;;7.15;3.63;;;;;;;-2.01;80.71;100136.72;5077875;28;20295;-62
2023/01/26 01:06:59;;;;;;;5.07;2.67;;;;;;;-2.01;80.99;100129.09;5079897;28;20225;-61
2023/01/26 01:09:25;;;;;;;9.60;3.55;;;;;;;-1.97;80.84;100145.28;5081252;28;20123;-63
2023/01/26 01:11:51;;;;;;;7.90;3.90;;;;;;;-2.02;80.79;100124.81;5090165;28;20040;-61
2023/01/26 01:14:17;;;;;;;8.68;3.80;;;;;;;-2.21;81.13;100100.59;5082167;28;20487;-62
2023/01/26 01:16:44;;;;;;;12.88;4.10;;;;;;;-2.07;81.08;100122.97;5081140;28;20122;-60
2023/01/26 01:19:13;;;;;;;7.65;3.67;;;;;;;-2.04;81.05;100134.09;5077589;28;20047;-61
2023/01/26 01:21:41;;;;;;;10.48;4.80;;;;;;;-2.05;81.21;100144.25;5038065;28;20126;-63
2023/01/26 01:24:10;;;;;;;5.37;2.93;;;;;;;-2.02;81.09;100118.84;5068583;28;20044;-61
2023/01/26 01:26:37;;;;;;;7.72;3.17;;;;;;;-2.00;81.13;100120.63;5085922;28;20282;-62
2023/01/26 01:29:03;;;;;;;5.47;2.72;;;;;;;-2.29;80.96;100076.63;5078166;28;20050;-63
2023/01/26 01:31:29;;;;;;;9.88;3.75;;;;;;;-1.91;81.12;100125.91;5087794;28;20077;-62
2023/01/26 01:33:55;;;;;;;7.85;3.45;;;;;;;-1.90;80.86;100137.84;5087854;28;20431;-61
2023/01/26 01:36:22;;;;;;;11.73;4.68;;;;;;;-1.93;81.05;100114.81;5089075;28;20043;-62
2023/01/26 01:38:50;;;;;;;10.70;3.97;;;;;;;-1.92;81.12;100108.91;5084215;28;20527;-60
2023/01/26 01:41:18;;;;;;;9.77;3.53;;;;;;;-1.91;80.97;100114.84;5064457;28;20310;-61
2023/01/26 01:43:44;;;;;;;7.03;3.28;;;;;;;-1.90;80.99;100107.25;5086728;28;20043;-62
2023/01/26 01:46:31;;;;;;;6.25;2.72;;;;;;;-1.88;80.76;100125.97;5073730;28;20090;-60
2023/01/26 01:49:17;;;;;;;8.35;3.58;;;;;;;-1.90;80.71;100116.59;5066805;28;20178;-59
2023/01/26 01:51:47;;;;;;;10.73;3.90;;;;;;;-1.91;80.77;100109.75;5087398;28;20065;-63
2023/01/26 01:54:16;;;;;;;9.07;3.80;;;;;;;-1.86;80.64;100119.22;5071741;28;20055;-62
2023/01/26 01:56:46;;;;;;;6.97;3.57;;;;;;;-2.11;80.68;100077.91;5068811;28;20076;-62
2023/01/26 01:59:12;;;;;;;7.10;3.58;;;;;;;-1.88;80.83;100104.72;5068035;28;20287;-61
2023/01/26 02:01:39;;;;;;;7.68;2.97;;;;;;;-2.04;80.63;100087.41;5055553;28;20090;-61
2023/01/26 02:04:06;;;;;;;8.63;3.45;;;;;;;-1.95;80.66;100096.09;5084725;28;20084;-61
2023/01/26 02:06:41;;;;;;;4.75;2.53;;;;;;;-1.97;80.91;100100.28;5066214;28;20323;-61
2023/01/26 02:10:17;;;;;;;8.45;3.80;;;;;;;-1.95;80.85;100093.56;5058885;28;20032;-64
2023/01/26 02:11:54;;;;;;;5.55;3.40;;;;;;;-2.10;80.76;100075.38;5083608;28;20507;-61
2023/01/26 02:14:20;;;;;;;12.38;4.28;;;;;;;-2.14;81.09;100071.03;5070070;28;20036;-60
2023/01/26 02:16:47;;;;;;;8.60;3.72;;;;;;;-1.92;81.08;100091.06;5087943;28;20518;-60
2023/01/26 02:19:54;;;;;;;6.78;3.17;;;;;;;-1.93;80.82;100103.75;5051154;28;20079;-61
2023/01/26 02:22:26;;;;;;;6.05;3.47;;;;;;;-1.92;80.85;100088.50;5087102;28;20043;-61
2023/01/26 02:24:55;;;;;;;10.63;3.28;;;;;;;-1.92;81.08;100090.19;5087517;28;20071;-61
2023/01/26 02:27:21;;;;;;;7.10;2.72;;;;;;;-1.94;81.24;100086.78;5067313;28;20078;-60
2023/01/26 02:29:48;;;;;;;8.95;3.95;;;;;;;-1.89;81.17;100086.06;5068223;28;20179;-61
2023/01/26 02:32:15;;;;;;;11.45;4.25;;;;;;;-1.85;81.33;100081.88;5067628;28;20040;-62
2023/01/26 02:34:40;;;;;;;9.27;3.92;;;;;;;-1.89;81.14;100075.88;5067537;28;20029;-54
2023/01/26 02:37:12;;;;;;;5.80;3.20;;;;;;;-1.90;81.13;100078.38;5068594;28;20139;-62
2023/01/26 02:39:58;;;;;;;9.02;4.45;;;;;;;-1.90;81.13;100076.69;5050851;28;20427;-63
2023/01/26 02:42:37;;;;;;;5.53;3.17;;;;;;;-2.14;80.87;100040.47;5085916;28;20479;-61
2023/01/26 02:45:04;;;;;;;5.07;2.53;;;;;;;-1.96;81.09;100078.22;5071590;28;20040;-61
2023/01/26 02:47:31;;;;;;;9.35;3.83;;;;;;;-2.18;81.06;100052.28;5086758;28;20491;-62
2023/01/26 02:49:59;;;;;;;7.65;3.47;;;;;;;-1.98;81.32;100068.00;5080415;28;20048;-62
2023/01/26 02:52:26;;;;;;;;;;;;;;;-1.92;81.07;100069.81;5055141;28;20043;-63
2023/01/26 02:55:23;;;;;;;3.92;2.47;;;;;;;-1.90;81.37;100063.09;5085638;28;20006;-63
2023/01/26 02:57:52;;;;;;;5.57;2.50;;;;;;;-2.05;81.07;100025.41;5084663;28;20043;-62
2023/01/26 03:00:26;;;;;;;9.00;4.10;;;;;;;-1.82;81.16;100059.84;5087461;28;20047;-61
2023/01/26 03:02:55;;;;;;;11.15;3.60;;;;;;;-1.84;80.94;100058.13;5085024;28;20036;-62
2023/01/26 03:05:23;;;;;;;6.13;2.88;;;;;;;-1.81;80.92;100046.28;5056952;28;20131;-63
2023/01/26 03:07:51;;;;;;;5.97;3.25;;;;;;;-1.81;80.99;100061.59;5063471;28;20068;-62
2023/01/26 03:10:24;;;;;;;8.45;3.88;;;;;;;-1.83;80.95;100052.16;5075553;28;20036;-63
2023/01/26 03:12:51;;;;;;;6.32;3.13;;;;;;;-1.78;81.18;100048.06;5063198;28;20075;-63
2023/01/26 03:29:08;;;;;;;7.70;3.53;;;;;;;-1.81;80.72;100040.34;5081142;28;20071;-60
2023/01/26 03:31:34;;;;;;;8.38;3.92;;;;;;;-1.77;80.80;100049.75;5063919;28;20090;-63
2023/01/26 03:34:00;;;;;;;6.38;3.03;;;;;;;-1.77;80.75;100042.97;5088258;28;20123;-60
2023/01/26 03:36:26;;;;;;;10.15;4.45;;;;;;;-1.71;80.65;100055.84;5089869;28;20101;-63
2023/01/26 03:38:52;;;;;;;6.47;3.47;;;;;;;-1.69;80.76;100052.47;5089227;28;20523;-62
2023/01/26 03:57:48;;;;;;;9.80;4.28;;;;;;;-1.61;79.94;100056.03;5077825;28;20106;-61
2023/01/26 04:00:14;;;;;;;3.80;1.55;;;;;;;-1.57;79.74;100043.38;5065151;28;20346;-62
2023/01/26 04:08:27;;;;;;;7.70;3.35;;;;;;;-1.56;79.67;100062.94;5073220;28;20717;-63
2023/01/26 04:10:59;;;;;;;10.73;4.93;;;;;;;-1.48;79.56;100061.41;5055340;28;20037;-65
2023/01/26 04:21:45;;;;;;;7.15;3.65;;;;;;;-1.40;78.65;100053.91;5063994;28;20040;-66
2023/01/26 04:24:15;;;;;;;11.40;4.57;;;;;;;-1.58;78.52;100025.50;5086474;28;20535;-66
2023/01/26 04:26:42;;;;;;;7.90;4.15;;;;;;;-1.38;78.69;100053.13;5088520;28;20399;-64
2023/01/26 04:29:13;;;;;;;5.78;3.15;;;;;;;-1.36;78.48;100055.72;5073520;28;20054;-64
2023/01/26 04:31:41;;;;;;;;;;;;;;;-1.41;78.25;100047.06;5073202;28;20036;-64
2023/01/26 04:34:13;;;;;;;9.43;3.90;;;;;;;-1.47;78.64;100044.44;5088588;28;19920;-65
2023/01/26 04:36:40;;;;;;;5.50;3.28;;;;;;;-1.45;78.42;100058.06;5055670;28;20051;-64
2023/01/26 04:39:06;;;;;;;10.73;4.13;;;;;;;-1.48;78.41;100047.81;5071951;28;20523;-65
2023/01/26 04:41:33;;;;;;;12.65;4.45;;;;;;;-1.65;78.35;100001.59;5089625;28;20082;-65
2023/01/26 04:44:07;;;;;;;9.18;3.00;;;;;;;-1.41;78.58;100047.06;5088214;28;20538;-64
2023/01/26 04:46:33;;;;;;;8.05;3.85;;;;;;;-1.42;78.59;100055.59;5070288;28;20064;-65
2023/01/26 04:49:00;;;;;;;11.85;4.72;;;;;;;-1.40;78.37;100048.81;5052470;28;20071;-64
2023/01/26 04:51:27;;;;;;;8.68;4.15;;;;;;;-1.43;78.26;100044.53;5082250;28;20043;-64
2023/01/26 04:53:54;;;;;;;11.57;5.40;;;;;;;-1.41;78.04;100040.28;5071376;28;20043;-57
2023/01/26 04:56:23;;;;;;;8.70;4.47;;;;;;;-1.40;78.08;100044.56;5085242;28;20043;-59
2023/01/26 04:58:50;;;;;;;7.47;3.88;;;;;;;-1.49;77.88;100052.03;5088667;28;20507;-65
2023/01/26 05:01:16;;;;;;;8.63;3.78;;;;;;;-1.53;78.12;100040.06;5068790;28;20032;-64
2023/01/26 05:03:42;;;;;;;7.68;3.90;;;;;;;-1.50;77.80;100065.63;5070418;28;20039;-63
2023/01/26 05:06:10;;;;;;;7.07;3.42;;;;;;;-1.53;78.13;100041.75;5086350;28;20043;-65
2023/01/26 05:08:38;;;;;;;9.07;4.15;;;;;;;-1.68;77.75;100021.94;5068798;28;20079;-64
2023/01/26 05:11:04;;;;;;;19.20;3.92;;;;;;;-1.48;77.85;100038.47;5074965;28;20043;-65
2023/01/26 05:14:06;;;;;;;6.28;3.22;;;;;;;-1.65;77.90;100018.56;5031114;28;20045;-65
2023/01/26 05:16:58;;;;;;;12.38;3.97;;;;;;;-1.60;78.15;100033.13;5078467;28;20158;-64
2023/01/26 05:19:44;;;;;;;12.30;4.63;;;;;;;-1.57;78.11;100033.16;5089293;28;20066;-60
2023/01/26 05:22:16;;;;;;;6.82;3.70;;;;;;;-1.60;77.90;100019.53;5077186;28;20059;-63
2023/01/26 05:25:02;;;;;;;10.27;4.75;;;;;;;-1.58;77.78;100031.47;5080900;28;20044;-62
2023/01/26 05:27:36;;;;;;;8.23;4.00;;;;;;;-1.54;77.89;100025.59;5066361;28;20044;-68
2023/01/26 05:30:02;;;;;;;8.20;3.95;;;;;;;-1.54;77.76;100043.44;5068236;28;20530;-63
2023/01/26 05:32:31;;;;;;;10.05;4.53;;;;;;;-1.58;77.83;100033.16;5087605;28;20043;-43
2023/01/26 05:34:57;;;;;;;8.05;3.13;;;;;;;-1.82;77.96;99970.66;5086278;28;20032;-53
2023/01/26 05:37:25;;;;;;;15.63;4.90;;;;;;;-1.43;77.51;100031.78;5079809;28;20580;-51
2023/01/26 05:39:51;;;;;;;9.90;3.85;;;;;;;-1.43;77.36;100039.41;5075021;28;20066;-51
2023/01/26 05:42:19;;;;;;;9.13;4.40;;;;;;;-1.60;77.31;100016.97;5071839;28;20067;-50
2023/01/26 05:45:06;;;;;;;10.40;3.70;;;;;;;-1.41;77.55;100047.06;5101259;28;20040;-48
2023/01/26 05:47:32;;;;;;;9.10;4.55;;;;;;;-1.61;76.92;100028.00;5088399;28;20755;-48
2023/01/26 05:49:58;;;;;;;6.03;3.35;;;;;;;-1.48;77.17;100042.72;5098156;28;20126;-49
2023/01/26 05:52:29;;;;;;;9.32;3.95;;;;;;;-1.49;77.36;100029.09;5093153;28;20094;-51
2023/01/26 05:54:55;;;;;;;12.65;5.18;;;;;;;-1.34;77.14;100033.63;5088883;28;20359;-49
2023/01/26 05:57:22;;;;;;;5.35;2.97;;;;;;;-1.25;77.01;100036.34;5071644;28;20118;-48
2023/01/26 05:59:58;;;;;;;8.35;4.40;;;;;;;-1.26;76.63;100031.22;5051718;28;20044;-50
2023/01/26 06:02:26;;;;;;;11.18;4.60;;;;;;;-1.32;76.51;100035.38;5055554;28;20457;-51
2023/01/26 06:04:52;;;;;;;9.52;5.28;;;;;;;-1.30;76.56;100038.81;5079169;28;20056;-48
2023/01/26 06:07:18;;;;;;;12.73;5.57;;;;;;;-1.27;76.61;100034.59;5067015;28;20465;-55
2023/01/26 06:10:04;;;;;;;10.35;3.42;;;;;;;-1.30;76.45;100020.09;5070001;28;20055;-49
2023/01/26 06:12:46;;;;;;;8.75;3.42;;;;;;;-1.27;76.17;100024.41;5088115;28;20040;-46
2023/01/26 06:15:32;;;;;;;9.32;4.22;;;;;;;-1.60;76.09;99986.38;5089697;28;20146;-48
2023/01/26 06:18:00;;;;;;;11.68;4.97;;;;;;;-1.42;76.44;100020.75;5067769;28;20127;-52
2023/01/26 06:20:26;;;;;;;7.28;3.50;;;;;;;-1.40;76.32;100023.31;5052525;28;20121;-50
2023/01/26 06:23:00;;;;;;;10.35;3.92;;;;;;;-1.44;76.53;100024.09;5082331;28;20047;-49
2023/01/26 06:25:27;;;;;;;12.35;5.13;;;;;;;-1.42;76.62;100017.34;5063094;28;20488;-47
2023/01/26 06:27:57;;;;;;;10.63;4.30;;;;;;;-1.51;76.36;99984.84;5064324;28;20132;-48
2023/01/26 06:30:26;;;;;;;9.48;4.40;;;;;;;-1.45;76.16;100012.16;5060029;28;20634;-47
2023/01/26 06:32:54;;;;;;;7.32;3.92;;;;;;;-1.50;76.53;100004.44;5080904;28;20052;-50
2023/01/26 06:35:20;;;;;;;13.77;4.60;;;;;;;-1.51;76.43;100005.25;5097872;28;20109;-52
2023/01/26 06:37:49;;;;;;;8.15;4.20;;;;;;;-1.49;76.45;100001.06;5060126;28;20040;-51
2023/01/26 06:40:16;;;;;;;10.15;3.25;;;;;;;-1.46;76.90;100011.28;5079813;28;20360;-53
2023/01/26 06:42:49;;;;;;;9.13;4.47;;;;;;;-1.44;76.65;100022.41;5063587;28;20046;-50
2023/01/26 06:45:19;;;;;;;14.00;5.47;;;;;;;-1.57;76.84;99974.53;5100815;28;20044;-53
2023/01/26 06:47:47;;;;;;;10.45;4.47;;;;;;;-1.41;76.57;100013.94;5084998;28;20130;-50
2023/01/26 06:50:15;;;;;;;9.75;4.63;;;;;;;-1.39;76.69;100018.25;5094690;28;20035;-49
2023/01/26 06:52:44;;;;;;;11.43;4.90;;;;;;;-1.40;76.54;100013.97;5082661;28;20044;-47
2023/01/26 06:55:38;;;;;;;11.25;4.68;;;;;;;-1.44;76.61;100016.44;5065580;28;20041;-52
2023/01/26 06:58:30;;;;;;;10.48;4.40;;;;;;;-1.42;76.57;100002.91;5037286;28;20041;-50
2023/01/26 07:01:25;;;;;;;7.00;3.28;;;;;;;-1.38;76.46;100001.25;5082798;28;20044;-51
2023/01/26 07:03:54;;;;;;;11.10;5.07;;;;;;;-1.43;76.58;100003.72;5085963;28;20040;-51
2023/01/26 07:06:19;;;;;;;5.50;3.00;;;;;;;-1.42;76.75;99999.47;5083718;28;20052;-53
2023/01/26 07:08:45;;;;;;;9.63;4.60;;;;;;;-1.41;76.71;99996.94;5063909;28;20048;-44
2023/01/26 07:11:12;;;;;;;11.52;5.10;;;;;;;-1.38;76.68;100008.91;5081438;28;20036;-54
2023/01/26 07:13:38;;;;;;;9.60;4.28;;;;;;;-1.57;76.60;99986.47;5081818;28;20073;-56
2023/01/26 07:16:07;;;;;;;14.05;5.80;;;;;;;-1.39;77.07;100005.50;5061956;28;20106;-51
2023/01/26 07:18:33;;;;;;;7.40;3.00;;;;;;;-1.53;76.67;99983.13;5065982;28;20119;-57
2023/01/26 07:21:07;;;;;;;11.85;5.22;;;;;;;-1.30;76.47;100010.75;5088121;28;20056;-58
2023/01/26 07:23:33;;;;;;;10.13;4.50;;;;;;;-1.29;76.29;99997.19;5056358;28;20130;-55
2023/01/26 07:25:59;;;;;;;9.23;4.60;;;;;;;-1.46;76.39;99982.38;5076777;28;20539;-54
2023/01/26 07:28:25;;;;;;;6.00;3.20;;;;;;;-1.33;76.18;99992.00;5086049;28;20032;-55
2023/01/26 07:30:52;;;;;;;12.15;5.25;;;;;;;-1.25;76.40;100005.72;5084817;28;20526;-57
2023/01/26 07:33:18;;;;;;;10.68;4.53;;;;;;;-1.36;76.09;99984.31;5087788;28;20028;-55
2023/01/26 07:35:44;;;;;;;11.15;5.40;;;;;;;-1.12;76.17;100011.91;5082625;28;20131;-57
2023/01/26 07:38:10;;;;;;;12.60;5.93;;;;;;;-1.06;76.13;100012.03;5067917;28;20135;-55
2023/01/26 07:40:35;;;;;;;12.32;5.47;;;;;;;-1.00;75.73;100013.00;5067833;28;20573;-54
2023/01/26 07:43:01;;;;;;;7.95;4.03;;;;;;;-0.96;75.93;100019.00;5089774;28;20066;-58
2023/01/26 07:45:51;;;;;;;8.82;3.05;;;;;;;-1.02;75.38;100007.00;5084463;28;20440;-55
2023/01/26 07:48:22;;;;;;;7.68;3.65;;;;;;;-1.03;75.39;100015.50;5086323;28;20065;-61
2023/01/26 07:50:48;;;;;;;13.15;5.75;;;;;;;-0.97;75.78;100012.19;5086648;28;20032;-58
2023/01/26 07:53:18;;;;;;;7.60;3.90;;;;;;;-0.88;75.23;100014.88;5052425;28;20469;-53
2023/01/26 07:55:44;;;;;;;;;;;;;;;-0.84;75.11;100013.25;5092049;28;20036;-53
2023/01/26 07:58:10;;;;;;;9.90;3.60;;;;;;;-1.14;75.27;99967.66;5086835;28;19963;-57
2023/01/26 08:00:37;;;;;;;15.55;6.75;;;;;;;-0.82;75.17;99988.59;5085051;28;20147;-53
2023/01/26 08:03:03;;;;;;;11.95;3.63;;;;;;;-0.85;74.73;99966.47;5062514;28;20043;-60
2023/01/26 08:05:30;;;;;;;7.72;3.65;;;;;;;-0.73;74.67;99988.78;5075284;28;20048;-48
2023/01/26 08:07:58;;;;;;;7.60;3.65;;;;;;;-0.74;74.90;99982.81;5060041;28;20037;-56
2023/01/26 08:10:24;;;;;;;12.25;5.30;;;;;;;-0.68;74.64;100012.69;5087824;28;20098;-55
2023/01/26 08:12:50;;;;;;;10.50;4.95;;;;;;;-0.82;74.56;99970.75;5083893;28;20036;-53
2023/01/26 08:15:16;;;;;;;5.15;3.20;;;;;;;-0.82;74.54;99953.72;5074673;28;20048;-55
2023/01/26 08:17:42;;;;;;;11.20;5.05;;;;;;;-0.58;74.25;99989.00;5073865;28;20147;-52
2023/01/26 08:20:09;;;;;;;8.52;4.25;;;;;;;-0.48;74.36;99984.06;5089925;28;20048;-52
2023/01/26 08:22:35;;;;;;;8.38;3.58;;;;;;;-0.46;73.77;99981.50;5088468;28;20042;-55
2023/01/26 08:25:01;;;;;;;10.73;4.10;;;;;;;-0.49;74.10;99977.22;5089544;28;20527;-50
2023/01/26 08:27:28;;;;;;;11.50;5.25;;;;;;;-0.42;73.56;99994.34;5088073;28;20095;-50
2023/01/26 08:29:55;;;;;;;7.25;3.55;;;;;;;-0.40;73.29;99984.16;5089468;28;20479;-48
2023/01/26 08:32:21;;;;;;;10.57;4.25;;;;;;;-0.39;73.47;99975.66;5082216;28;20152;-51
2023/01/26 08:34:46;;;;;;;7.43;3.88;;;;;;;-0.30;73.46;99980.03;5071434;28;20044;-52
2023/01/26 08:37:12;;;;;;;8.38;4.30;;;;;;;-0.27;73.51;99978.41;5052553;28;20574;-50
2023/01/26 08:39:38;;;;;;;8.80;4.00;;;;;;;-0.36;73.03;99967.16;5069379;28;20762;-48
2023/01/26 08:42:04;;;;;;;15.75;6.47;;;;;;;-0.38;72.99;99984.19;5070454;28;20176;-54
2023/01/26 08:44:30;;;;;;;10.02;4.47;;;;;;;-0.32;73.27;99967.25;5070724;28;20047;-50
2023/01/26 08:46:55;;;;;;;13.48;5.38;;;;;;;-0.24;73.22;99975.88;5052541;28;20067;-49
2023/01/26 08:49:21;;;;;;;7.30;3.80;;;;;;;-0.28;72.64;99983.47;5069158;28;20044;-51
2023/01/26 08:51:47;;;;;;;4.18;2.42;;;;;;;-0.34;72.96;99965.50;5069075;28;20587;-48
2023/01/26 08:54:13;;;;;;;9.07;3.80;;;;;;;-0.25;72.72;99960.50;5068857;28;20068;-50
2023/01/26 08:56:38;;;;;;;15.60;6.05;;;;;;;-0.16;73.16;99960.66;5069063;28;20499;-51
2023/01/26 08:59:04;;;;;;;13.40;4.45;;;;;;;-0.21;72.54;99955.47;5069173;28;20048;-50
2023/01/26 09:01:30;;;;;;;10.60;4.80;;;;;;;-0.25;72.64;99961.38;5070660;28;20048;-50
2023/01/26 09:03:57;;;;;;;12.38;5.15;;;;;;;-0.26;72.88;99967.31;5070367;28;20076;-49
2023/01/26 09:06:23;;;;;;;9.23;3.90;;;;;;;-0.15;72.47;99954.69;5072249;28;20040;-46
2023/01/26 09:08:49;;;;;;;9.20;3.67;;;;;;;-0.12;72.68;99959.84;5068710;28;20461;-52
2023/01/26 09:11:15;;;;;;;11.05;5.18;;;;;;;-0.11;72.30;99959.00;5070271;28;20060;-49
2023/01/26 09:13:41;;;;;;;14.18;6.07;;;;;;;-0.07;72.57;99959.06;5070206;28;20063;-52
2023/01/26 09:16:13;;;;;;;14.82;4.97;;;;;;;-0.06;72.58;99950.56;5070132;28;20047;-51
2023/01/26 09:18:39;;;;;;;10.40;4.03;;;;;;;-0.03;72.46;99959.97;5069853;28;20500;-48
2023/01/26 09:21:06;;;;;;;10.80;4.45;;;;;;;-0.08;72.57;99957.34;5069679;28;20071;-51
2023/01/26 09:23:33;;;;;;;10.40;4.97;;;;;;;-0.04;72.71;99953.97;5069668;28;20049;-51
2023/01/26 09:25:59;;;;;;;15.98;5.45;;;;;;;0.06;72.78;99957.50;5067815;28;20056;-52
2023/01/26 09:28:25;;;;;;;9.82;4.68;;;;;;;-0.11;72.20;99941.13;5051656;28;20056;-48
2023/01/26 09:30:51;;;;;;;9.45;4.13;;;;;;;-0.08;72.07;99949.69;5069549;28;20083;-50
2023/01/26 09:33:17;;;;;;;7.57;3.63;;;;;;;-0.04;72.80;99953.13;5069541;28;20052;-49
2023/01/26 09:35:43;;;;;;;6.55;3.33;;;;;;;-0.12;72.66;99954.75;5068306;28;20048;-51
2023/01/26 09:38:09;;;;;;;10.38;4.57;;;;;;;-0.04;72.66;99956.53;5068051;28;20522;-50
2023/01/26 09:41:09;;;;;;;7.30;3.53;;;;;;;-0.12;72.71;99954.75;5068440;28;20475;-49
2023/01/26 09:43:49;;;;;;;9.85;3.70;;;;;;;-0.21;72.83;99958.00;5068204;28;20032;-49
2023/01/26 09:46:22;;;;;;;9.90;4.05;;;;;;;-0.27;73.14;99957.97;5051637;28;20036;-50
2023/01/26 09:48:59;;;;;;;7.03;3.20;;;;;;;-0.21;73.00;99958.00;5068329;28;20048;-48
2023/01/26 09:51:31;;;;;;;11.18;5.35;;;;;;;-0.10;73.01;99959.00;5069350;28;20113;-51
2023/01/26 09:54:14;;;;;;;10.80;5.35;;;;;;;-0.15;72.63;99940.22;5084765;28;20040;-51
2023/01/26 09:56:40;;;;;;;9.57;4.70;;;;;;;-0.05;72.50;99943.72;5068065;28;20076;-49
2023/01/26 09:59:30;;;;;;;13.05;4.97;;;;;;;-0.27;72.71;99900.91;5068024;28;20178;-49
2023/01/26 10:02:02;;;;;;;6.82;3.28;;;;;;;0.04;72.50;99940.44;5034276;28;20044;-51
2023/01/26 10:04:36;;;;;;;12.45;5.60;;;;;;;0.04;72.45;99912.34;5069209;28;20036;-51
2023/01/26 10:07:07;;;;;;;13.10;5.70;;;;;;;0.24;72.21;99938.97;5059810;28;20470;-47
2023/01/26 10:09:48;;;;;;;12.98;5.35;;;;;;;0.14;72.05;99915.00;5053030;28;20045;-50
2023/01/26 10:12:24;;;;;;;9.02;3.67;;;;;;;0.21;71.90;99934.66;5067677;28;20142;-48
2023/01/26 10:14:54;;;;;;;6.85;2.92;;;;;;;0.04;72.09;99946.41;5068896;28;20044;-48
2023/01/26 10:17:41;;;;;;;6.72;3.10;;;;;;;-0.05;72.75;99934.38;5051029;28;20041;-47
2023/01/26 10:20:28;;;;;;;8.95;4.47;;;;;;;0.03;72.79;99925.94;5067530;28;20044;-50
2023/01/26 10:23:22;;;;;;;11.60;4.82;;;;;;;-0.20;72.88;99902.66;5068625;28;20177;-51
2023/01/26 10:25:50;;;;;;;11.95;4.68;;;;;;;-0.05;72.81;99921.59;5064621;28;20052;-47
2023/01/26 10:28:29;;;;;;;8.68;4.20;;;;;;;0.07;73.53;99941.34;5068364;28;20041;-47
2023/01/26 10:30:55;;;;;;;8.83;3.87;;;;;;;-0.19;73.53;99912.06;5067471;28;20496;-50
2023/01/26 10:33:29;;;;;;;9.50;4.28;;;;;;;-0.26;73.66;99898.34;5066367;28;20048;-50
2023/01/26 10:35:55;;;;;;;10.75;4.03;;;;;;;-0.35;73.71;99894.81;5067131;28;20055;-50
2023/01/26 10:38:36;;;;;;;10.88;4.32;;;;;;;-0.07;73.79;99936.06;5068103;28;20496;-48
2023/01/26 10:41:08;;;;;;;8.15;3.63;;;;;;;-0.12;73.65;99913.84;5068093;28;20036;-50
2023/01/26 10:43:41;;;;;;;7.93;3.65;;;;;;;-0.31;73.54;99899.97;5066828;28;20063;-52
2023/01/26 10:46:23;;;;;;;7.68;3.67;;;;;;;-0.39;74.25;99893.06;5050245;28;20139;-49
2023/01/26 10:48:52;;;;;;;6.57;3.60;;;;;;;-0.17;74.50;99915.50;5066998;28;20043;-48
2023/01/26 10:51:23;;;;;;;7.70;3.53;;;;;;;-0.15;74.37;99899.31;5067248;28;20503;-52
2023/01/26 10:53:49;;;;;;;7.43;3.70;;;;;;;-0.14;74.55;99910.41;5068343;28;20040;-52
2023/01/26 10:56:16;;;;;;;10.05;4.68;;;;;;;-0.10;74.83;99890.03;5066991;28;20048;-51
2023/01/26 10:58:56;;;;;;;10.40;4.70;;;;;;;0.03;74.76;99893.59;5066829;28;20508;-51
2023/01/26 11:01:26;;;;;;;10.15;4.07;;;;;;;0.02;74.52;99899.53;5066617;28;20056;-49
2023/01/26 11:04:03;;;;;;;6.88;3.20;;;;;;;-0.10;74.11;99882.34;5066752;28;20431;-51
2023/01/26 11:06:30;;;;;;;9.48;4.25;;;;;;;-0.07;74.63;99882.41;5066485;28;20131;-48
2023/01/26 11:09:09;;;;;;;7.82;3.45;;;;;;;-0.03;74.98;99878.19;5050229;28;20545;-54
2023/01/26 11:11:35;;;;;;;;;;;;;;;-0.03;74.90;99871.38;5068588;28;20091;-50
2023/01/26 11:14:16;;;;;;;12.02;3.17;;;;;;;-0.22;75.12;99851.56;5068429;28;19939;-51
2023/01/26 11:16:56;;;;;;;8.02;3.75;;;;;;;-0.42;74.68;99820.66;5066919;28;20064;-50
2023/01/26 11:19:22;;;;;;;9.82;4.35;;;;;;;-0.11;75.20;99869.59;5068068;28;20127;-50
2023/01/26 11:21:55;;;;;;;7.22;3.67;;;;;;;-0.11;75.43;99882.34;5068090;28;20042;-49
2023/01/26 11:24:50;;;;;;;8.90;4.50;;;;;;;-0.11;75.92;99869.59;5066660;28;20131;-48
2023/01/26 11:27:28;;;;;;;8.45;4.07;;;;;;;-0.01;76.46;99862.03;5067825;28;20052;-51
2023/01/26 11:30:11;;;;;;;7.50;3.20;;;;;;;-0.04;76.68;99848.34;5066197;28;20131;-51
2023/01/26 11:32:53;;;;;;;10.18;4.80;;;;;;;-0.04;76.92;99858.56;5067326;28;20093;-46
2023/01/26 11:35:33;;;;;;;7.70;4.00;;;;;;;-0.01;77.58;99856.06;5067623;28;20579;-48
2023/01/26 11:38:14;;;;;;;12.15;5.35;;;;;;;0.02;77.17;99856.09;5066191;28;20056;-50
2023/01/26 11:41:25;;;;;;;11.63;4.78;;;;;;;0.00;78.19;99858.63;5066288;28;20040;-50
2023/01/26 11:44:04;;;;;;;10.20;4.68;;;;;;;-0.06;78.96;99847.50;5054101;28;20053;-50
2023/01/26 11:46:40;;;;;;;9.68;4.60;;;;;;;-0.11;79.48;99857.66;5053684;28;20044;-49
2023/01/26 11:49:50;;;;;;;12.15;5.15;;;;;;;-0.18;80.94;99853.31;5053439;28;20377;-50
2023/01/26 11:52:18;;;;;;;9.43;5.15;;;;;;;-0.20;81.48;99852.44;5009169;28;20144;-51
2023/01/26 11:55:09;;;;;;;10.23;5.00;;;;;;;-0.35;81.64;99819.06;5076908;28;20446;-52
2023/01/26 11:58:01;;;;;;;11.45;5.07;;;;;;;-0.22;82.48;99864.34;5071405;28;20036;-47
2023/01/26 12:01:16;;;;;;;13.18;6.10;;;;;;;-0.28;82.96;99856.59;5071497;28;20067;-51
2023/01/26 12:03:52;;;;;;;15.57;5.43;;;;;;;-0.30;83.17;99853.16;5032267;28;20516;-48
2023/01/26 12:06:20;;;;;;;12.98;5.78;;;;;;;-0.24;83.70;99854.94;5071018;28;20055;-47
2023/01/26 12:08:52;;;;;;;13.77;5.53;;;;;;;-0.16;83.87;99859.28;5071282;28;20055;-50
2023/01/26 12:11:25;;;;;;;13.25;4.45;;;;;;;-0.20;84.19;99859.22;5036304;28;20102;-52
2023/01/26 12:14:03;;;;;;;12.57;5.35;;;;;;;-0.21;84.23;99860.94;5069385;28;20051;-50
2023/01/26 12:16:56;;;;;;;16.23;6.45;;;;;;;-0.19;85.23;99849.03;5069199;28;20040;-52
2023/01/26 12:19:32;;;;;;;16.70;5.97;;;;;;;-0.12;85.03;99861.06;5062743;28;20044;-51
2023/01/26 12:22:04;;;;;;;13.77;5.32;;;;;;;-0.23;85.19;99865.19;5053076;28;20120;-49
2023/01/26 12:24:39;;;;;;;14.52;5.30;;;;;;;-0.16;85.79;99866.13;5052921;28;20546;-50
2023/01/26 12:27:28;;;;;;;15.93;6.15;;;;;;;-0.10;85.56;99864.47;5069725;28;20070;-48
2023/01/26 12:29:57;;;;;;;;;;;;;;;-0.14;85.47;99860.16;5071025;28;20138;-49